createdAt,value
2023-02-05T00:01:33.224Z,5.72
2023-02-05T00:04:01.000Z,7.13
2023-02-05T00:06:28.117Z,6.35
2023-02-05T00:08:57.835Z,6.50
2023-02-05T00:11:25.349Z,7.00
2023-02-05T00:13:52.594Z,3.08
2023-02-05T00:16:22.932Z,4.32
2023-02-05T00:18:50.254Z,6.35
2023-02-05T00:21:18.172Z,7.13
2023-02-05T00:23:45.468Z,7.85
2023-02-05T00:26:14.614Z,9.20
2023-02-05T00:28:42.852Z,10.48
2023-02-05T00:31:16.195Z,5.20
2023-02-05T00:33:43.929Z,6.05
2023-02-05T00:36:12.845Z,12.02
2023-02-05T00:38:40.925Z,11.00
2023-02-05T00:41:10.801Z,7.30
2023-02-05T00:43:41.744Z,12.52
2023-02-05T00:46:10.508Z,9.18
2023-02-05T00:48:37.823Z,9.38
2023-02-05T00:51:05.393Z,8.02
2023-02-05T00:53:32.803Z,13.27
2023-02-05T00:56:01.066Z,11.75
2023-02-05T00:58:28.456Z,11.55
2023-02-05T01:00:57.887Z,10.50
2023-02-05T01:03:25.196Z,11.90
2023-02-05T01:05:52.236Z,9.18
2023-02-05T01:08:19.308Z,9.57
2023-02-05T01:10:48.963Z,12.10
2023-02-05T01:13:18.035Z,8.73
2023-02-05T01:15:46.988Z,8.75
2023-02-05T01:18:14.323Z,8.27
2023-02-05T01:20:42.848Z,13.13
2023-02-05T01:23:11.301Z,11.60
2023-02-05T01:25:39.417Z,10.75
2023-02-05T01:28:08.276Z,10.68
2023-02-05T01:30:36.199Z,12.25
2023-02-05T01:33:04.149Z,11.70
2023-02-05T01:35:32.178Z,11.20
2023-02-05T01:37:59.868Z,21.63
2023-02-05T01:40:27.953Z,11.57
2023-02-05T01:42:55.176Z,10.95
2023-02-05T01:45:22.294Z,10.88
2023-02-05T01:47:53.591Z,14.93
2023-02-05T01:50:44.620Z,13.65
2023-02-05T01:53:16.711Z,16.13
2023-02-05T01:56:07.895Z,13.68
2023-02-05T01:58:42.135Z,15.32
2023-02-05T02:01:09.230Z,15.38
2023-02-05T02:03:36.914Z,13.48
2023-02-05T02:06:05.282Z,12.77
2023-02-05T02:08:34.063Z,13.15
2023-02-05T02:11:03.993Z,10.55
2023-02-05T02:13:34.167Z,14.68
2023-02-05T02:16:05.926Z,12.82
2023-02-05T02:18:34.824Z,14.02
2023-02-05T02:21:24.171Z,15.40
2023-02-05T02:24:15.488Z,11.40
2023-02-05T02:26:54.861Z,15.10
2023-02-05T02:29:51.706Z,11.90
2023-02-05T02:32:38.878Z,14.10
2023-02-05T02:35:29.021Z,14.38
2023-02-05T02:38:07.531Z,10.75
2023-02-05T02:40:41.744Z,11.80
2023-02-05T02:43:14.702Z,14.80
2023-02-05T02:45:54.934Z,16.17
2023-02-05T02:48:25.160Z,18.42
2023-02-05T02:50:55.456Z,18.60
2023-02-05T02:53:34.692Z,15.07
2023-02-05T02:56:06.595Z,23.35
2023-02-05T02:58:43.763Z,20.73
2023-02-05T03:01:13.146Z,15.80
2023-02-05T03:03:48.416Z,14.50
2023-02-05T03:06:16.937Z,21.52
2023-02-05T03:09:05.908Z,17.63
2023-02-05T03:11:35.400Z,12.43
2023-02-05T03:14:02.931Z,15.20
2023-02-05T03:16:34.596Z,17.60
2023-02-05T03:19:03.121Z,18.25
2023-02-05T03:21:40.021Z,17.08
2023-02-05T03:24:08.491Z,20.55
2023-02-05T03:26:36.578Z,21.40
2023-02-05T03:29:13.653Z,19.90
2023-02-05T03:32:13.280Z,22.73
2023-02-05T03:35:02.606Z,19.65
2023-02-05T03:37:45.793Z,20.73
2023-02-05T03:40:37.525Z,18.02
2023-02-05T03:43:25.721Z,19.33
2023-02-05T03:45:59.480Z,22.90
2023-02-05T03:48:38.013Z,26.85
2023-02-05T03:51:37.879Z,28.92
2023-02-05T03:54:32.687Z,27.92
2023-02-05T03:57:10.865Z,18.90
2023-02-05T03:59:40.515Z,29.02
2023-02-05T04:02:08.200Z,28.40
2023-02-05T04:04:41.801Z,23.75
2023-02-05T04:07:10.192Z,23.40
2023-02-05T04:09:38.502Z,25.75
2023-02-05T04:12:05.852Z,22.83
2023-02-05T04:14:34.068Z,22.05
2023-02-05T04:17:01.217Z,21.15
2023-02-05T04:19:28.177Z,22.13
2023-02-05T04:21:58.610Z,22.83
2023-02-05T04:24:26.353Z,22.20
2023-02-05T04:26:54.109Z,19.83
2023-02-05T04:29:21.317Z,13.65
2023-02-05T04:31:50.973Z,14.45
2023-02-05T04:34:19.099Z,16.73
2023-02-05T04:36:46.690Z,25.42
2023-02-05T04:39:13.756Z,24.10
2023-02-05T04:41:41.838Z,28.08
2023-02-05T04:44:08.886Z,19.75
2023-02-05T04:46:36.059Z,21.30
2023-02-05T04:49:03.188Z,19.92
2023-02-05T04:51:30.193Z,22.27
2023-02-05T04:53:57.287Z,32.72
2023-02-05T04:56:24.831Z,31.00
2023-02-05T04:58:51.983Z,34.08
2023-02-05T05:01:22.082Z,20.73
2023-02-05T05:03:49.964Z,28.55
2023-02-05T05:06:19.176Z,28.02
2023-02-05T05:08:46.537Z,18.75
2023-02-05T05:11:18.994Z,25.50
2023-02-05T05:13:46.925Z,31.00
2023-02-05T05:16:14.396Z,37.97
2023-02-05T05:18:42.096Z,32.47
2023-02-05T05:21:11.409Z,24.98
2023-02-05T05:23:38.647Z,32.42
2023-02-05T05:26:07.654Z,28.20
2023-02-05T05:28:36.843Z,28.48
2023-02-05T05:31:13.593Z,21.25
2023-02-05T05:33:40.648Z,28.45
2023-02-05T05:36:08.346Z,26.30
2023-02-05T05:38:35.697Z,25.27
2023-02-05T05:41:21.615Z,19.50
2023-02-05T05:43:50.171Z,19.48
2023-02-05T05:46:22.609Z,27.42
2023-02-05T05:48:52.500Z,28.55
2023-02-05T05:51:20.614Z,27.67
2023-02-05T05:53:48.363Z,27.35
2023-02-05T05:56:16.843Z,22.35
2023-02-05T05:58:45.128Z,25.33
2023-02-05T06:01:19.444Z,28.15
2023-02-05T06:03:46.401Z,35.10
2023-02-05T06:06:14.808Z,29.88
2023-02-05T06:08:42.022Z,27.38
2023-02-05T06:11:09.047Z,27.05
2023-02-05T06:13:36.371Z,33.15
2023-02-05T06:16:04.723Z,32.00
2023-02-05T06:18:33.244Z,32.70
2023-02-05T06:21:01.672Z,30.38
2023-02-05T06:23:28.672Z,27.50
2023-02-05T06:25:55.652Z,25.15
2023-02-05T06:28:22.618Z,25.17
2023-02-05T06:30:49.775Z,25.38
2023-02-05T06:33:16.871Z,31.67
2023-02-05T06:35:43.840Z,24.20
2023-02-05T06:38:11.245Z,27.98
2023-02-05T06:40:38.568Z,30.15
2023-02-05T06:43:05.700Z,36.25
2023-02-05T06:45:33.038Z,32.33
2023-02-05T06:48:00.415Z,32.03
2023-02-05T06:50:27.798Z,22.92
2023-02-05T06:52:54.968Z,23.63
2023-02-05T06:55:22.046Z,23.13
2023-02-05T06:57:49.457Z,24.40
2023-02-05T07:00:17.893Z,34.78
2023-02-05T07:02:46.417Z,29.40
2023-02-05T07:05:13.414Z,28.75
2023-02-05T07:07:42.038Z,37.78
2023-02-05T07:10:09.287Z,34.03
2023-02-05T07:12:36.713Z,29.48
2023-02-05T07:15:04.427Z,27.60
2023-02-05T07:17:31.556Z,42.50
2023-02-05T07:19:58.849Z,26.70
2023-02-05T07:22:26.593Z,35.92
2023-02-05T07:24:53.468Z,33.40
2023-02-05T07:27:20.416Z,35.95
2023-02-05T07:29:47.592Z,33.20
2023-02-05T07:32:14.664Z,38.00
2023-02-05T07:34:41.743Z,32.47
2023-02-05T07:37:08.811Z,39.50
2023-02-05T07:39:35.956Z,33.58
2023-02-05T07:42:03.019Z,36.58
2023-02-05T07:44:38.099Z,32.85
2023-02-05T07:47:05.476Z,30.33
2023-02-05T07:49:32.392Z,25.42
2023-02-05T07:51:59.665Z,44.88
2023-02-05T07:54:26.600Z,28.30
2023-02-05T07:56:55.470Z,34.88
2023-02-05T07:59:22.467Z,36.08
2023-02-05T08:01:49.512Z,32.80
2023-02-05T08:04:16.489Z,45.55
2023-02-05T08:06:44.325Z,39.17
2023-02-05T08:09:11.825Z,43.00
2023-02-05T08:11:38.883Z,40.25
2023-02-05T08:14:05.902Z,29.52
2023-02-05T08:16:33.059Z,37.58
2023-02-05T08:19:00.102Z,33.50
2023-02-05T08:21:30.228Z,27.30
2023-02-05T08:23:58.662Z,27.63
2023-02-05T08:26:25.944Z,32.60
2023-02-05T08:28:52.967Z,25.48
2023-02-05T08:31:20.382Z,24.20
2023-02-05T08:33:48.180Z,30.88
2023-02-05T08:36:15.506Z,35.58
2023-02-05T08:38:42.573Z,32.22
2023-02-05T08:41:14.084Z,39.55
2023-02-05T08:43:47.115Z,37.00
2023-02-05T08:46:17.674Z,48.95
2023-02-05T08:48:45.278Z,38.58
2023-02-05T08:51:14.647Z,35.90
2023-02-05T08:53:42.024Z,37.50
2023-02-05T08:56:14.058Z,41.10
2023-02-05T08:58:41.317Z,35.17
2023-02-05T09:01:11.522Z,41.28
2023-02-05T09:03:39.194Z,35.50
2023-02-05T09:06:08.657Z,40.20
2023-02-05T09:08:36.850Z,38.10
2023-02-05T09:11:05.528Z,36.65
2023-02-05T09:13:32.793Z,45.28
2023-02-05T09:15:59.917Z,40.25
2023-02-05T09:18:26.970Z,43.58
2023-02-05T09:20:54.805Z,44.47
2023-02-05T09:23:22.091Z,35.72
2023-02-05T09:25:49.523Z,46.55
2023-02-05T09:28:16.970Z,33.40
2023-02-05T09:30:45.980Z,36.97
2023-02-05T09:33:14.437Z,34.30
2023-02-05T09:35:42.345Z,34.70
2023-02-05T09:38:10.394Z,40.03
2023-02-05T09:40:43.607Z,34.53
2023-02-05T09:43:41.549Z,40.88
2023-02-05T09:46:12.811Z,33.88
2023-02-05T09:48:54.346Z,38.80
2023-02-05T09:51:27.585Z,44.20
2023-02-05T09:53:59.749Z,37.13
2023-02-05T09:56:28.716Z,45.25
2023-02-05T09:58:58.686Z,37.28
2023-02-05T10:01:44.511Z,43.55
2023-02-05T10:06:48.238Z,44.70
2023-02-05T10:09:21.284Z,43.80
2023-02-05T10:12:11.264Z,39.67
2023-02-05T10:14:53.598Z,41.42
2023-02-05T10:17:29.754Z,35.35
2023-02-05T10:20:10.577Z,44.47
2023-02-05T10:22:48.561Z,36.03
2023-02-05T10:25:21.806Z,44.35
2023-02-05T10:28:21.280Z,43.58
2023-02-05T10:30:54.711Z,41.58
2023-02-05T10:33:40.558Z,36.40
2023-02-05T10:38:40.974Z,40.70
2023-02-05T10:41:17.184Z,43.67
2023-02-05T10:44:22.115Z,42.15
2023-02-05T10:46:55.555Z,36.33
2023-02-05T10:49:35.705Z,44.38
2023-02-05T10:52:02.758Z,37.83
2023-02-05T10:54:34.112Z,35.08
2023-02-05T10:57:01.849Z,41.22
2023-02-05T10:59:37.986Z,54.55
2023-02-05T11:02:08.400Z,40.15
2023-02-05T11:04:55.441Z,37.13
2023-02-05T11:07:30.560Z,38.83
2023-02-05T11:10:21.488Z,48.45
2023-02-05T11:12:51.698Z,39.65
2023-02-05T11:15:25.135Z,45.75
2023-02-05T11:17:54.477Z,30.30
2023-02-05T11:20:37.345Z,36.10
2023-02-05T11:23:25.349Z,50.53
2023-02-05T11:25:58.088Z,45.22
2023-02-05T11:28:32.048Z,44.85
2023-02-05T11:31:26.035Z,36.95
2023-02-05T11:34:12.138Z,44.72
2023-02-05T11:39:07.798Z,34.40
2023-02-05T11:41:48.888Z,35.17
2023-02-05T11:44:22.001Z,37.28
2023-02-05T11:46:49.761Z,39.55
2023-02-05T11:49:22.614Z,41.53
2023-02-05T11:51:55.506Z,34.15
2023-02-05T11:54:27.348Z,37.28
2023-02-05T11:57:07.724Z,46.65
2023-02-05T11:59:36.283Z,39.53
2023-02-05T12:02:30.638Z,29.65
2023-02-05T12:05:09.864Z,39.30
2023-02-05T12:08:15.709Z,37.00
2023-02-05T12:11:16.267Z,35.83
2023-02-05T12:14:00.572Z,43.47
2023-02-05T12:16:48.304Z,45.22
2023-02-05T12:19:44.722Z,31.67
2023-02-05T12:22:39.865Z,36.53
2023-02-05T12:25:20.076Z,43.75
2023-02-05T12:27:56.550Z,29.75
2023-02-05T12:30:41.124Z,36.08
2023-02-05T12:33:24.111Z,36.33
2023-02-05T12:36:29.204Z,38.20
2023-02-05T12:39:12.669Z,33.85
2023-02-05T12:41:59.558Z,35.30
2023-02-05T12:44:38.222Z,34.58
2023-02-05T12:47:12.038Z,29.33
2023-02-05T12:50:04.361Z,42.92
2023-02-05T12:52:44.157Z,35.30
2023-02-05T12:55:46.236Z,30.27
2023-02-05T12:58:15.875Z,36.80
2023-02-05T13:00:57.086Z,32.80
2023-02-05T13:03:46.942Z,32.58
2023-02-05T13:06:30.156Z,41.55
2023-02-05T13:09:04.966Z,37.00
2023-02-05T13:11:59.860Z,38.47
2023-02-05T13:14:50.020Z,35.75
2023-02-05T13:17:41.369Z,33.92
2023-02-05T13:20:22.051Z,33.92
2023-02-05T13:23:16.667Z,41.53
2023-02-05T13:26:08.561Z,36.28
2023-02-05T13:28:48.111Z,43.40
2023-02-05T13:31:21.354Z,38.60
2023-02-05T13:33:49.408Z,38.78
2023-02-05T13:36:27.565Z,39.08
2023-02-05T13:39:34.464Z,36.88
2023-02-05T13:42:33.118Z,38.58
2023-02-05T13:45:00.117Z,43.60
2023-02-05T13:47:52.096Z,38.17
2023-02-05T13:50:56.867Z,29.13
2023-02-05T13:53:29.580Z,31.60
2023-02-05T13:56:24.771Z,29.88
2023-02-05T13:58:57.710Z,42.05
2023-02-05T14:01:29.733Z,33.55
2023-02-05T14:04:21.551Z,24.48
2023-02-05T14:07:17.184Z,37.83
2023-02-05T14:09:54.192Z,30.80
2023-02-05T14:12:39.686Z,39.90
2023-02-05T14:15:37.102Z,28.85
2023-02-05T14:18:04.701Z,32.97
2023-02-05T14:20:37.977Z,29.30
2023-02-05T14:23:43.667Z,34.67
2023-02-05T14:26:11.950Z,33.55
2023-02-05T14:28:50.627Z,38.30
2023-02-05T14:31:46.599Z,32.88
2023-02-05T14:34:31.809Z,38.55
2023-02-05T14:36:59.783Z,40.30
2023-02-05T14:39:32.873Z,47.35
2023-02-05T14:42:05.490Z,41.03
2023-02-05T14:44:39.482Z,33.70
2023-02-05T14:47:28.125Z,32.95
2023-02-05T14:50:11.255Z,41.05
2023-02-05T14:52:46.578Z,34.55
2023-02-05T14:55:13.805Z,36.08
2023-02-05T14:57:41.363Z,30.10
2023-02-05T15:00:17.728Z,45.85
2023-02-05T15:03:06.193Z,34.47
2023-02-05T15:05:36.544Z,39.33
2023-02-05T15:08:31.572Z,33.38
2023-02-05T15:11:30.655Z,39.60
2023-02-05T15:14:22.714Z,34.20
2023-02-05T15:17:32.588Z,58.28
2023-02-05T15:20:20.206Z,46.30
2023-02-05T15:22:55.334Z,39.70
2023-02-05T15:25:52.859Z,38.33
2023-02-05T15:28:38.467Z,35.50
2023-02-05T15:31:29.408Z,38.50
2023-02-05T15:34:17.690Z,38.72
2023-02-05T15:36:59.225Z,42.67
2023-02-05T15:39:47.747Z,37.35
2023-02-05T15:42:22.149Z,39.95
2023-02-05T15:44:49.442Z,54.60
2023-02-05T15:47:24.988Z,41.28
2023-02-05T15:49:57.643Z,34.63
2023-02-05T15:52:29.433Z,39.40
2023-02-05T15:55:00.596Z,29.63
2023-02-05T15:57:32.252Z,45.40
2023-02-05T16:00:02.203Z,46.30
2023-02-05T16:02:31.593Z,29.52
2023-02-05T16:05:02.114Z,46.10
2023-02-05T16:07:35.372Z,42.95
2023-02-05T16:10:16.749Z,33.63
2023-02-05T16:13:02.815Z,46.25
2023-02-05T16:15:58.723Z,44.55
2023-02-05T16:18:34.334Z,40.45
2023-02-05T16:23:46.032Z,44.13
2023-02-05T16:26:28.606Z,42.65
2023-02-05T16:29:02.879Z,51.15
2023-02-05T16:31:31.752Z,43.30
2023-02-05T16:34:00.245Z,47.35
2023-02-05T16:36:32.152Z,46.10
2023-02-05T16:39:02.656Z,48.72
2023-02-05T16:41:33.308Z,45.90
2023-02-05T16:44:04.064Z,37.38
2023-02-05T16:46:32.527Z,50.40
2023-02-05T16:49:28.556Z,42.08
2023-02-05T16:51:56.490Z,46.50
2023-02-05T16:54:35.959Z,46.70
2023-02-05T16:57:15.418Z,43.35
2023-02-05T16:59:59.663Z,39.67
2023-02-05T17:02:32.585Z,42.97
2023-02-05T17:05:01.659Z,49.17
2023-02-05T17:07:29.061Z,61.67
2023-02-05T17:10:26.083Z,55.75
2023-02-05T17:13:05.562Z,54.33
2023-02-05T17:15:40.308Z,53.08
2023-02-05T17:18:22.938Z,39.00
2023-02-05T17:20:50.615Z,44.70
2023-02-05T17:23:18.515Z,45.28
2023-02-05T17:25:55.297Z,52.15
2023-02-05T17:28:28.279Z,59.95
2023-02-05T17:31:00.171Z,49.38
2023-02-05T17:33:28.705Z,44.75
2023-02-05T17:35:56.001Z,41.30
2023-02-05T17:38:25.814Z,49.83
2023-02-05T17:41:12.888Z,53.40
2023-02-05T17:43:40.276Z,52.47
2023-02-05T17:46:14.009Z,45.08
2023-02-05T17:48:41.702Z,48.92
2023-02-05T17:51:20.165Z,48.30
2023-02-05T17:53:49.013Z,42.92
2023-02-05T17:56:19.460Z,42.45
2023-02-05T17:58:46.932Z,40.53
2023-02-05T18:01:14.237Z,43.22
2023-02-05T18:03:41.931Z,47.80
2023-02-05T18:06:12.181Z,42.65
2023-02-05T18:08:39.576Z,50.15
2023-02-05T18:11:06.817Z,79.25
2023-02-05T18:13:33.892Z,40.30
2023-02-05T18:16:03.731Z,47.95
2023-02-05T18:18:32.332Z,55.05
2023-02-05T18:20:59.622Z,41.47
2023-02-05T18:23:29.438Z,39.92
2023-02-05T18:25:58.337Z,61.13
2023-02-05T18:28:25.375Z,34.80
2023-02-05T18:30:58.074Z,45.40
2023-02-05T18:33:25.192Z,45.60
2023-02-05T18:35:52.635Z,57.88
2023-02-05T18:38:21.749Z,46.70
2023-02-05T18:40:50.377Z,59.47
2023-02-05T18:43:17.877Z,48.28
2023-02-05T18:45:45.299Z,53.72
2023-02-05T18:48:12.557Z,53.72
2023-02-05T18:50:39.577Z,55.97
2023-02-05T18:53:06.878Z,50.58
2023-02-05T18:55:36.077Z,50.08
2023-02-05T18:58:04.228Z,47.03
2023-02-05T19:00:32.188Z,56.97
2023-02-05T19:02:59.862Z,49.08
2023-02-05T19:05:27.037Z,47.42
2023-02-05T19:07:54.351Z,53.03
2023-02-05T19:10:21.525Z,50.92
2023-02-05T19:12:50.581Z,61.70
2023-02-05T19:15:18.007Z,37.75
2023-02-05T19:17:45.085Z,50.97
2023-02-05T19:20:12.310Z,46.38
2023-02-05T19:22:39.414Z,53.35
2023-02-05T19:25:07.074Z,40.80
2023-02-05T19:27:34.220Z,55.22
2023-02-05T19:30:01.436Z,55.15
2023-02-05T19:32:28.479Z,45.88
2023-02-05T19:34:55.846Z,50.85
2023-02-05T19:37:23.075Z,51.20
2023-02-05T19:39:49.995Z,37.88
2023-02-05T19:42:17.031Z,55.42
2023-02-05T19:44:44.040Z,60.13
2023-02-05T19:47:11.478Z,56.30
2023-02-05T19:49:38.723Z,42.92
2023-02-05T19:52:07.594Z,58.25
2023-02-05T19:54:34.622Z,48.95
2023-02-05T19:57:02.680Z,45.78
2023-02-05T19:59:29.654Z,48.33
2023-02-05T20:01:56.664Z,50.00
2023-02-05T20:04:26.387Z,48.60
2023-02-05T20:06:58.933Z,47.95
2023-02-05T20:09:27.412Z,48.63
2023-02-05T20:11:55.562Z,52.70
2023-02-05T20:14:23.973Z,56.20
2023-02-05T20:16:52.151Z,46.42
2023-02-05T20:19:20.503Z,49.88
2023-02-05T20:21:47.832Z,43.63
2023-02-05T20:24:16.396Z,61.97
2023-02-05T20:26:44.115Z,46.97
2023-02-05T20:29:30.359Z,48.33
2023-02-05T20:31:58.635Z,54.95
2023-02-05T20:34:30.741Z,57.28
2023-02-05T20:37:00.833Z,43.40
2023-02-05T20:39:29.084Z,49.85
2023-02-05T20:41:58.059Z,65.70
2023-02-05T20:44:32.779Z,61.03
2023-02-05T20:47:00.023Z,57.00
2023-02-05T20:49:27.068Z,51.20
2023-02-05T20:51:54.367Z,64.97
2023-02-05T20:54:22.782Z,55.60
2023-02-05T20:56:59.531Z,66.07
2023-02-05T20:59:34.627Z,57.53
2023-02-05T21:02:02.967Z,50.30
2023-02-05T21:04:30.185Z,57.20
2023-02-05T21:06:58.441Z,57.72
2023-02-05T21:09:25.474Z,47.10
2023-02-05T21:11:55.803Z,52.45
2023-02-05T21:14:23.714Z,51.03
2023-02-05T21:16:50.859Z,56.50
2023-02-05T21:19:18.557Z,55.15
2023-02-05T21:21:45.953Z,73.25
2023-02-05T21:24:15.094Z,56.47
2023-02-05T21:26:47.128Z,58.45
2023-02-05T21:29:17.242Z,63.22
2023-02-05T21:31:47.004Z,44.97
2023-02-05T21:34:17.885Z,62.20
2023-02-05T21:36:47.528Z,65.45
2023-02-05T21:39:17.489Z,50.97
2023-02-05T21:41:48.894Z,59.72
2023-02-05T21:44:16.211Z,62.88
2023-02-05T21:46:43.284Z,60.95
2023-02-05T21:49:11.287Z,53.05
2023-02-05T21:51:38.342Z,52.78
2023-02-05T21:54:06.736Z,53.28
2023-02-05T21:56:40.698Z,51.53
2023-02-05T21:59:07.893Z,47.40
2023-02-05T22:01:36.591Z,58.00
2023-02-05T22:04:08.283Z,49.53
2023-02-05T22:06:36.010Z,47.45
2023-02-05T22:09:06.004Z,54.35
2023-02-05T22:11:33.866Z,50.47
2023-02-05T22:14:00.939Z,49.78
2023-02-05T22:16:33.483Z,57.83
2023-02-05T22:19:01.457Z,46.03
2023-02-05T22:21:31.321Z,62.67
2023-02-05T22:24:00.535Z,53.97
2023-02-05T22:26:30.956Z,58.00
2023-02-05T22:28:59.364Z,52.28
2023-02-05T22:31:28.106Z,51.13
2023-02-05T22:33:55.975Z,51.97
2023-02-05T22:36:25.594Z,55.25
2023-02-05T22:38:55.440Z,45.65
2023-02-05T22:41:33.793Z,61.97
2023-02-05T22:44:02.374Z,42.17
2023-02-05T22:46:32.810Z,52.95
2023-02-05T22:49:01.399Z,46.67
2023-02-05T22:51:31.806Z,43.50
2023-02-05T22:53:59.633Z,47.17
2023-02-05T22:56:27.157Z,45.47
2023-02-05T22:58:55.284Z,60.95
2023-02-05T23:01:29.553Z,47.05
2023-02-05T23:03:58.484Z,45.45
2023-02-05T23:06:26.697Z,47.92
2023-02-05T23:09:03.457Z,45.78
2023-02-05T23:11:32.390Z,50.20
2023-02-05T23:14:00.670Z,51.53
2023-02-05T23:16:37.829Z,53.22
2023-02-05T23:19:07.881Z,59.03
2023-02-05T23:21:37.402Z,42.92
2023-02-05T23:24:07.407Z,43.25
2023-02-05T23:26:40.218Z,54.83
2023-02-05T23:29:07.868Z,49.80
2023-02-05T23:31:35.332Z,44.63
2023-02-05T23:34:02.795Z,52.50
2023-02-05T23:36:29.936Z,45.60
2023-02-05T23:38:57.053Z,39.08
2023-02-05T23:41:36.367Z,44.55
2023-02-05T23:44:11.979Z,38.53
2023-02-05T23:49:07.127Z,40.90
2023-02-05T23:51:34.671Z,40.00
2023-02-05T23:54:02.386Z,49.75
2023-02-05T23:56:29.959Z,43.35
2023-02-05T23:58:57.327Z,43.95
